sensor_id;sensor_type;location;lat;lon;timestamp;pressure;altitude;pressure_sealevel;temperature;humidity
62946;BME280;52164;52.212;-1.010;2023-05-14T00:00:57;101511.77;;;11.26;74.10
62946;BME280;52164;52.212;-1.010;2023-05-14T00:03:23;101509.11;;;11.28;74.19
62946;BME280;52164;52.212;-1.010;2023-05-14T00:05:48;101503.59;;;11.29;74.18
62946;BME280;52164;52.212;-1.010;2023-05-14T00:08:13;101503.78;;;11.30;74.12
62946;BME280;52164;52.212;-1.010;2023-05-14T00:10:40;101500.56;;;11.31;74.04
62946;BME280;52164;52.212;-1.010;2023-05-14T00:13:06;101501.65;;;11.32;74.15
62946;BME280;52164;52.212;-1.010;2023-05-14T00:15:31;101501.14;;;11.33;74.22
62946;BME280;52164;52.212;-1.010;2023-05-14T00:17:56;101494.00;;;11.34;74.05
62946;BME280;52164;52.212;-1.010;2023-05-14T00:20:22;101488.83;;;11.35;74.07
62946;BME280;52164;52.212;-1.010;2023-05-14T00:22:47;101485.98;;;11.36;74.06
62946;BME280;52164;52.212;-1.010;2023-05-14T00:25:13;101473.82;;;11.35;74.00
62946;BME280;52164;52.212;-1.010;2023-05-14T00:27:38;101467.55;;;11.34;74.44
62946;BME280;52164;52.212;-1.010;2023-05-14T00:30:04;101464.69;;;11.33;74.33
62946;BME280;52164;52.212;-1.010;2023-05-14T00:32:31;101462.89;;;11.32;73.97
62946;BME280;52164;52.212;-1.010;2023-05-14T00:34:56;101461.96;;;11.30;74.07
62946;BME280;52164;52.212;-1.010;2023-05-14T00:37:21;101455.50;;;11.28;74.25
62946;BME280;52164;52.212;-1.010;2023-05-14T00:39:47;101449.75;;;11.26;74.30
62946;BME280;52164;52.212;-1.010;2023-05-14T00:42:13;101447.04;;;11.23;74.07
62946;BME280;52164;52.212;-1.010;2023-05-14T00:44:38;101448.80;;;11.20;74.20
62946;BME280;52164;52.212;-1.010;2023-05-14T00:47:03;101448.75;;;11.16;74.35
62946;BME280;52164;52.212;-1.010;2023-05-14T00:49:29;101451.04;;;11.13;74.37
62946;BME280;52164;52.212;-1.010;2023-05-14T00:51:55;101453.34;;;11.10;74.45
62946;BME280;52164;52.212;-1.010;2023-05-14T00:54:23;101453.65;;;11.09;74.35
62946;BME280;52164;52.212;-1.010;2023-05-14T00:56:49;101448.45;;;11.07;74.44
62946;BME280;52164;52.212;-1.010;2023-05-14T00:59:14;101441.27;;;11.04;74.56
62946;BME280;52164;52.212;-1.010;2023-05-14T01:01:40;101439.46;;;11.01;74.55
62946;BME280;52164;52.212;-1.010;2023-05-14T01:04:06;101438.16;;;10.98;74.51
62946;BME280;52164;52.212;-1.010;2023-05-14T01:06:36;101440.77;;;10.94;74.54
62946;BME280;52164;52.212;-1.010;2023-05-14T01:09:06;101434.31;;;10.91;74.55
62946;BME280;52164;52.212;-1.010;2023-05-14T01:16:26;101429.15;;;10.80;74.74
62946;BME280;52164;52.212;-1.010;2023-05-14T01:18:53;101429.30;;;10.78;74.72
62946;BME280;52164;52.212;-1.010;2023-05-14T01:21:24;101429.48;;;10.76;74.79
62946;BME280;52164;52.212;-1.010;2023-05-14T01:23:50;101428.77;;;10.78;74.92
62946;BME280;52164;52.212;-1.010;2023-05-14T01:26:15;101429.70;;;10.80;75.11
62946;BME280;52164;52.212;-1.010;2023-05-14T01:28:40;101430.60;;;10.81;75.08
62946;BME280;52164;52.212;-1.010;2023-05-14T01:31:11;101430.62;;;10.82;75.09
62946;BME280;52164;52.212;-1.010;2023-05-14T01:33:38;101428.69;;;10.84;74.98
62946;BME280;52164;52.212;-1.010;2023-05-14T01:36:05;101425.49;;;10.86;74.93
62946;BME280;52164;52.212;-1.010;2023-05-14T01:38:30;101428.91;;;10.88;74.89
62946;BME280;52164;52.212;-1.010;2023-05-14T01:40:58;101429.66;;;10.90;74.64
62946;BME280;52164;52.212;-1.010;2023-05-14T01:43:24;101426.27;;;10.90;74.63
62946;BME280;52164;52.212;-1.010;2023-05-14T01:45:49;101426.63;;;10.90;74.86
62946;BME280;52164;52.212;-1.010;2023-05-14T01:48:15;101428.05;;;10.91;74.77
62946;BME280;52164;52.212;-1.010;2023-05-14T01:50:40;101423.96;;;10.91;74.71
62946;BME280;52164;52.212;-1.010;2023-05-14T01:53:05;101424.30;;;10.91;74.58
62946;BME280;52164;52.212;-1.010;2023-05-14T01:55:31;101419.27;;;10.89;74.44
62946;BME280;52164;52.212;-1.010;2023-05-14T01:57:57;101418.73;;;10.87;74.69
62946;BME280;52164;52.212;-1.010;2023-05-14T02:00:22;101414.06;;;10.85;74.78
62946;BME280;52164;52.212;-1.010;2023-05-14T02:02:49;101409.02;;;10.82;74.77
62946;BME280;52164;52.212;-1.010;2023-05-14T02:05:16;101408.26;;;10.79;74.87
62946;BME280;52164;52.212;-1.010;2023-05-14T02:07:41;101404.68;;;10.79;75.02
62946;BME280;52164;52.212;-1.010;2023-05-14T02:10:07;101403.03;;;10.75;75.09
62946;BME280;52164;52.212;-1.010;2023-05-14T02:12:33;101397.64;;;10.72;75.20
62946;BME280;52164;52.212;-1.010;2023-05-14T02:14:58;101395.27;;;10.69;75.12
62946;BME280;52164;52.212;-1.010;2023-05-14T02:17:24;101395.77;;;10.67;75.23
62946;BME280;52164;52.212;-1.010;2023-05-14T02:19:50;101391.27;;;10.65;75.38
62946;BME280;52164;52.212;-1.010;2023-05-14T02:22:15;101391.08;;;10.63;75.52
62946;BME280;52164;52.212;-1.010;2023-05-14T02:24:40;101387.66;;;10.61;75.42
62946;BME280;52164;52.212;-1.010;2023-05-14T02:27:06;101389.06;;;10.59;75.46
62946;BME280;52164;52.212;-1.010;2023-05-14T02:29:31;101381.88;;;10.56;75.45
62946;BME280;52164;52.212;-1.010;2023-05-14T02:31:56;101387.58;;;10.54;75.63
62946;BME280;52164;52.212;-1.010;2023-05-14T02:34:22;101381.80;;;10.50;75.42
62946;BME280;52164;52.212;-1.010;2023-05-14T02:36:47;101380.33;;;10.47;75.60
62946;BME280;52164;52.212;-1.010;2023-05-14T02:39:13;101376.04;;;10.47;75.66
62946;BME280;52164;52.212;-1.010;2023-05-14T02:41:39;101371.20;;;10.45;75.67
62946;BME280;52164;52.212;-1.010;2023-05-14T02:44:05;101370.85;;;10.45;75.65
62946;BME280;52164;52.212;-1.010;2023-05-14T02:46:30;101362.98;;;10.45;75.75
62946;BME280;52164;52.212;-1.010;2023-05-14T02:48:56;101363.70;;;10.44;75.71
62946;BME280;52164;52.212;-1.010;2023-05-14T02:51:22;101365.32;;;10.46;75.90
62946;BME280;52164;52.212;-1.010;2023-05-14T02:53:47;101368.91;;;10.48;75.76
62946;BME280;52164;52.212;-1.010;2023-05-14T02:56:13;101367.88;;;10.50;75.58
62946;BME280;52164;52.212;-1.010;2023-05-14T02:58:38;101366.29;;;10.52;75.48
62946;BME280;52164;52.212;-1.010;2023-05-14T03:01:03;101366.84;;;10.52;75.46
62946;BME280;52164;52.212;-1.010;2023-05-14T03:03:29;101365.11;;;10.56;75.51
62946;BME280;52164;52.212;-1.010;2023-05-14T03:05:55;101363.52;;;10.58;75.41
62946;BME280;52164;52.212;-1.010;2023-05-14T03:08:21;101359.22;;;10.56;75.28
62946;BME280;52164;52.212;-1.010;2023-05-14T03:10:46;101363.12;;;10.54;75.50
62946;BME280;52164;52.212;-1.010;2023-05-14T03:13:12;101358.14;;;10.55;75.35
62946;BME280;52164;52.212;-1.010;2023-05-14T03:15:42;101359.20;;;10.55;75.51
62946;BME280;52164;52.212;-1.010;2023-05-14T03:18:07;101359.21;;;10.54;75.47
62946;BME280;52164;52.212;-1.010;2023-05-14T03:20:32;101360.62;;;10.54;75.81
62946;BME280;52164;52.212;-1.010;2023-05-14T03:22:57;101361.11;;;10.52;75.71
62946;BME280;52164;52.212;-1.010;2023-05-14T03:25:23;101361.27;;;10.49;75.77
62946;BME280;52164;52.212;-1.010;2023-05-14T03:27:48;101358.91;;;10.47;75.95
62946;BME280;52164;52.212;-1.010;2023-05-14T03:30:13;101355.33;;;10.46;75.95
62946;BME280;52164;52.212;-1.010;2023-05-14T03:32:39;101349.95;;;10.44;75.69
62946;BME280;52164;52.212;-1.010;2023-05-14T03:35:05;101347.25;;;10.42;75.55
62946;BME280;52164;52.212;-1.010;2023-05-14T03:37:30;101347.19;;;10.39;75.65
62946;BME280;52164;52.212;-1.010;2023-05-14T03:39:56;101345.17;;;10.35;75.57
62946;BME280;52164;52.212;-1.010;2023-05-14T03:42:21;101349.77;;;10.32;75.55
62946;BME280;52164;52.212;-1.010;2023-05-14T03:44:46;101349.36;;;10.29;75.46
62946;BME280;52164;52.212;-1.010;2023-05-14T03:47:11;101351.80;;;10.27;75.37
62946;BME280;52164;52.212;-1.010;2023-05-14T03:49:37;101348.53;;;10.23;75.56
62946;BME280;52164;52.212;-1.010;2023-05-14T03:52:02;101345.64;;;10.20;75.82
62946;BME280;52164;52.212;-1.010;2023-05-14T03:54:27;101348.64;;;10.18;75.83
62946;BME280;52164;52.212;-1.010;2023-05-14T03:56:52;101349.86;;;10.15;75.91
62946;BME280;52164;52.212;-1.010;2023-05-14T03:59:18;101348.95;;;10.14;76.01
62946;BME280;52164;52.212;-1.010;2023-05-14T04:01:43;101348.02;;;10.12;75.74
62946;BME280;52164;52.212;-1.010;2023-05-14T04:04:08;101345.86;;;10.10;75.65
62946;BME280;52164;52.212;-1.010;2023-05-14T04:06:34;101343.85;;;10.08;75.62
62946;BME280;52164;52.212;-1.010;2023-05-14T04:09:00;101343.30;;;10.07;75.99
62946;BME280;52164;52.212;-1.010;2023-05-14T04:11:26;101340.60;;;10.05;76.16
62946;BME280;52164;52.212;-1.010;2023-05-14T04:13:52;101335.59;;;10.04;76.25
62946;BME280;52164;52.212;-1.010;2023-05-14T04:16:17;101336.12;;;10.03;76.27
62946;BME280;52164;52.212;-1.010;2023-05-14T04:18:42;101335.05;;;10.03;76.54
62946;BME280;52164;52.212;-1.010;2023-05-14T04:21:07;101331.85;;;10.04;76.51
62946;BME280;52164;52.212;-1.010;2023-05-14T04:23:33;101332.08;;;10.08;76.51
62946;BME280;52164;52.212;-1.010;2023-05-14T04:25:58;101330.16;;;10.11;76.55
62946;BME280;52164;52.212;-1.010;2023-05-14T04:28:23;101332.18;;;10.14;76.55
62946;BME280;52164;52.212;-1.010;2023-05-14T04:30:50;101326.00;;;10.19;76.59
62946;BME280;52164;52.212;-1.010;2023-05-14T04:33:16;101321.23;;;10.22;76.51
62946;BME280;52164;52.212;-1.010;2023-05-14T04:35:42;101318.59;;;10.25;76.43
62946;BME280;52164;52.212;-1.010;2023-05-14T04:38:07;101316.80;;;10.25;76.24
62946;BME280;52164;52.212;-1.010;2023-05-14T04:40:34;101321.47;;;10.26;76.37
62946;BME280;52164;52.212;-1.010;2023-05-14T04:42:59;101315.75;;;10.26;76.28
62946;BME280;52164;52.212;-1.010;2023-05-14T04:45:24;101316.29;;;10.26;76.20
62946;BME280;52164;52.212;-1.010;2023-05-14T04:47:50;101312.53;;;10.25;76.23
62946;BME280;52164;52.212;-1.010;2023-05-14T04:50:16;101306.43;;;10.23;76.30
62946;BME280;52164;52.212;-1.010;2023-05-14T04:52:42;101302.67;;;10.22;76.09
62946;BME280;52164;52.212;-1.010;2023-05-14T04:55:08;101296.74;;;10.19;76.10
62946;BME280;52164;52.212;-1.010;2023-05-14T04:57:33;101295.08;;;10.15;76.21
62946;BME280;52164;52.212;-1.010;2023-05-14T04:59:59;101290.58;;;10.11;76.31
62946;BME280;52164;52.212;-1.010;2023-05-14T05:02:25;101288.40;;;10.09;76.45
62946;BME280;52164;52.212;-1.010;2023-05-14T05:04:50;101295.52;;;10.08;76.46
62946;BME280;52164;52.212;-1.010;2023-05-14T05:07:17;101291.77;;;10.08;76.54
62946;BME280;52164;52.212;-1.010;2023-05-14T05:09:43;101290.69;;;10.08;76.54
62946;BME280;52164;52.212;-1.010;2023-05-14T05:12:08;101287.48;;;10.07;76.32
62946;BME280;52164;52.212;-1.010;2023-05-14T05:14:34;101290.52;;;10.07;76.27
62946;BME280;52164;52.212;-1.010;2023-05-14T05:17:00;101287.98;;;10.05;76.37
62946;BME280;52164;52.212;-1.010;2023-05-14T05:19:25;101283.52;;;10.04;76.56
62946;BME280;52164;52.212;-1.010;2023-05-14T05:21:50;101283.52;;;10.05;76.45
62946;BME280;52164;52.212;-1.010;2023-05-14T05:24:15;101282.65;;;10.06;76.46
62946;BME280;52164;52.212;-1.010;2023-05-14T05:26:41;101281.06;;;10.06;76.32
62946;BME280;52164;52.212;-1.010;2023-05-14T05:29:06;101284.10;;;10.08;76.36
62946;BME280;52164;52.212;-1.010;2023-05-14T05:31:31;101284.45;;;10.08;76.34
62946;BME280;52164;52.212;-1.010;2023-05-14T05:33:57;101289.11;;;10.09;76.38
62946;BME280;52164;52.212;-1.010;2023-05-14T05:36:23;101286.10;;;10.10;76.42
62946;BME280;52164;52.212;-1.010;2023-05-14T05:38:48;101289.13;;;10.11;76.39
62946;BME280;52164;52.212;-1.010;2023-05-14T05:41:13;101284.02;;;10.14;76.53
62946;BME280;52164;52.212;-1.010;2023-05-14T05:43:39;101283.56;;;10.19;76.32
62946;BME280;52164;52.212;-1.010;2023-05-14T05:46:05;101282.91;;;10.25;76.35
62946;BME280;52164;52.212;-1.010;2023-05-14T05:48:30;101281.37;;;10.29;76.25
62946;BME280;52164;52.212;-1.010;2023-05-14T05:50:56;101277.48;;;10.32;76.17
62946;BME280;52164;52.212;-1.010;2023-05-14T05:53:21;101279.88;;;10.35;76.00
62946;BME280;52164;52.212;-1.010;2023-05-14T05:55:46;101277.05;;;10.37;76.09
62946;BME280;52164;52.212;-1.010;2023-05-14T05:58:12;101278.89;;;10.42;76.06
62946;BME280;52164;52.212;-1.010;2023-05-14T06:00:39;101282.69;;;10.46;76.18
62946;BME280;52164;52.212;-1.010;2023-05-14T06:03:05;101274.29;;;10.45;75.65
62946;BME280;52164;52.212;-1.010;2023-05-14T06:05:30;101270.49;;;10.40;75.64
62946;BME280;52164;52.212;-1.010;2023-05-14T06:07:55;101268.20;;;10.43;75.83
62946;BME280;52164;52.212;-1.010;2023-05-14T06:10:20;101268.08;;;10.46;75.72
62946;BME280;52164;52.212;-1.010;2023-05-14T06:12:46;101270.78;;;10.50;75.67
62946;BME280;52164;52.212;-1.010;2023-05-14T06:15:11;101275.98;;;10.52;75.57
62946;BME280;52164;52.212;-1.010;2023-05-14T06:17:37;101273.71;;;10.55;75.30
62946;BME280;52164;52.212;-1.010;2023-05-14T06:20:03;101273.54;;;10.56;75.30
62946;BME280;52164;52.212;-1.010;2023-05-14T06:22:29;101272.98;;;10.54;75.09
62946;BME280;52164;52.212;-1.010;2023-05-14T06:24:55;101267.58;;;10.50;75.24
62946;BME280;52164;52.212;-1.010;2023-05-14T06:27:20;101267.77;;;10.51;75.38
62946;BME280;52164;52.212;-1.010;2023-05-14T06:29:46;101268.66;;;10.52;75.23
62946;BME280;52164;52.212;-1.010;2023-05-14T06:32:11;101263.49;;;10.53;74.95
62946;BME280;52164;52.212;-1.010;2023-05-14T06:34:39;101263.32;;;10.53;75.02
62946;BME280;52164;52.212;-1.010;2023-05-14T06:37:06;101257.45;;;10.55;74.80
62946;BME280;52164;52.212;-1.010;2023-05-14T06:39:31;101258.37;;;10.55;74.84
62946;BME280;52164;52.212;-1.010;2023-05-14T06:41:56;101255.20;;;10.60;75.11
62946;BME280;52164;52.212;-1.010;2023-05-14T06:44:22;101248.30;;;10.66;75.11
62946;BME280;52164;52.212;-1.010;2023-05-14T06:46:47;101249.11;;;10.73;74.86
62946;BME280;52164;52.212;-1.010;2023-05-14T06:49:12;101247.59;;;10.83;75.00
62946;BME280;52164;52.212;-1.010;2023-05-14T06:51:37;101248.95;;;10.93;74.78
62946;BME280;52164;52.212;-1.010;2023-05-14T06:54:04;101239.77;;;11.02;74.47
62946;BME280;52164;52.212;-1.010;2023-05-14T06:56:30;101240.20;;;11.11;74.11
62946;BME280;52164;52.212;-1.010;2023-05-14T06:58:55;101235.77;;;11.16;73.70
62946;BME280;52164;52.212;-1.010;2023-05-14T07:01:20;101239.42;;;11.24;73.86
62946;BME280;52164;52.212;-1.010;2023-05-14T07:03:46;101235.20;;;11.32;73.91
62946;BME280;52164;52.212;-1.010;2023-05-14T07:06:11;101231.55;;;11.43;73.77
62946;BME280;52164;52.212;-1.010;2023-05-14T07:08:40;101238.23;;;11.53;73.67
62946;BME280;52164;52.212;-1.010;2023-05-14T07:11:05;101237.23;;;11.64;73.28
62946;BME280;52164;52.212;-1.010;2023-05-14T07:13:31;101237.86;;;11.75;73.38
62946;BME280;52164;52.212;-1.010;2023-05-14T07:15:58;101235.23;;;11.86;72.90
62946;BME280;52164;52.212;-1.010;2023-05-14T07:18:23;101234.08;;;11.94;72.53
62946;BME280;52164;52.212;-1.010;2023-05-14T07:20:48;101237.52;;;12.02;72.17
62946;BME280;52164;52.212;-1.010;2023-05-14T07:23:14;101235.05;;;12.08;71.98
62946;BME280;52164;52.212;-1.010;2023-05-14T07:25:39;101231.13;;;12.11;71.95
62946;BME280;52164;52.212;-1.010;2023-05-14T07:28:05;101227.58;;;12.17;71.93
62946;BME280;52164;52.212;-1.010;2023-05-14T07:30:30;101228.86;;;12.23;71.78
62946;BME280;52164;52.212;-1.010;2023-05-14T07:32:56;101230.68;;;12.30;71.80
62946;BME280;52164;52.212;-1.010;2023-05-14T07:35:21;101228.92;;;12.36;71.67
62946;BME280;52164;52.212;-1.010;2023-05-14T07:37:47;101221.77;;;12.40;71.06
62946;BME280;52164;52.212;-1.010;2023-05-14T07:40:13;101228.39;;;12.41;70.85
62946;BME280;52164;52.212;-1.010;2023-05-14T07:42:38;101228.23;;;12.42;70.94
62946;BME280;52164;52.212;-1.010;2023-05-14T07:45:04;101224.67;;;12.49;70.91
62946;BME280;52164;52.212;-1.010;2023-05-14T07:47:29;101226.67;;;12.58;70.54
62946;BME280;52164;52.212;-1.010;2023-05-14T07:49:55;101227.76;;;12.66;70.31
62946;BME280;52164;52.212;-1.010;2023-05-14T07:52:21;101231.19;;;12.71;69.90
62946;BME280;52164;52.212;-1.010;2023-05-14T07:54:46;101230.66;;;12.75;70.12
62946;BME280;52164;52.212;-1.010;2023-05-14T07:57:12;101237.67;;;12.86;69.71
62946;BME280;52164;52.212;-1.010;2023-05-14T07:59:37;101239.30;;;12.91;69.55
62946;BME280;52164;52.212;-1.010;2023-05-14T08:02:03;101238.59;;;12.95;69.49
62946;BME280;52164;52.212;-1.010;2023-05-14T08:04:28;101243.96;;;13.00;69.37
62946;BME280;52164;52.212;-1.010;2023-05-14T08:06:53;101242.36;;;13.06;69.25
62946;BME280;52164;52.212;-1.010;2023-05-14T08:09:22;101243.27;;;13.12;69.30
62946;BME280;52164;52.212;-1.010;2023-05-14T08:11:47;101235.75;;;13.24;68.62
62946;BME280;52164;52.212;-1.010;2023-05-14T08:14:13;101231.11;;;13.35;68.45
62946;BME280;52164;52.212;-1.010;2023-05-14T08:16:39;101226.30;;;13.46;68.09
62946;BME280;52164;52.212;-1.010;2023-05-14T08:19:04;101230.58;;;13.56;68.04
62946;BME280;52164;52.212;-1.010;2023-05-14T08:21:30;101232.73;;;13.67;67.93
62946;BME280;52164;52.212;-1.010;2023-05-14T08:23:56;101235.23;;;13.75;67.54
62946;BME280;52164;52.212;-1.010;2023-05-14T08:26:21;101226.95;;;13.81;67.51
62946;BME280;52164;52.212;-1.010;2023-05-14T08:28:47;101224.96;;;13.90;67.49
62946;BME280;52164;52.212;-1.010;2023-05-14T08:31:12;101222.61;;;13.98;67.23
62946;BME280;52164;52.212;-1.010;2023-05-14T08:33:38;101217.77;;;14.04;67.02
62946;BME280;52164;52.212;-1.010;2023-05-14T08:36:04;101224.73;;;14.11;66.58
62946;BME280;52164;52.212;-1.010;2023-05-14T08:38:29;101219.69;;;14.11;66.28
62946;BME280;52164;52.212;-1.010;2023-05-14T08:40:56;101215.00;;;14.21;65.99
62946;BME280;52164;52.212;-1.010;2023-05-14T08:43:24;101212.25;;;14.36;65.53
62946;BME280;52164;52.212;-1.010;2023-05-14T08:45:51;101210.05;;;14.45;65.80
62946;BME280;52164;52.212;-1.010;2023-05-14T08:48:18;101208.06;;;14.48;65.85
62946;BME280;52164;52.212;-1.010;2023-05-14T08:50:47;101200.14;;;14.52;65.60
62946;BME280;52164;52.212;-1.010;2023-05-14T08:53:12;101201.02;;;14.56;65.16
62946;BME280;52164;52.212;-1.010;2023-05-14T08:55:38;101200.98;;;14.60;65.32
62946;BME280;52164;52.212;-1.010;2023-05-14T08:58:03;101199.75;;;14.59;64.96
62946;BME280;52164;52.212;-1.010;2023-05-14T09:00:28;101197.60;;;14.57;64.79
62946;BME280;52164;52.212;-1.010;2023-05-14T09:02:54;101191.44;;;14.70;64.97
62946;BME280;52164;52.212;-1.010;2023-05-14T09:05:20;101185.12;;;14.76;64.45
62946;BME280;52164;52.212;-1.010;2023-05-14T09:07:46;101180.77;;;14.82;64.35
62946;BME280;52164;52.212;-1.010;2023-05-14T09:10:14;101176.92;;;14.93;64.60
62946;BME280;52164;52.212;-1.010;2023-05-14T09:12:40;101172.72;;;15.01;64.41
62946;BME280;52164;52.212;-1.010;2023-05-14T09:15:05;101171.73;;;15.13;64.90
62946;BME280;52164;52.212;-1.010;2023-05-14T09:17:32;101176.85;;;15.25;64.58
62946;BME280;52164;52.212;-1.010;2023-05-14T09:19:57;101178.77;;;15.30;64.51
62946;BME280;52164;52.212;-1.010;2023-05-14T09:22:23;101173.65;;;15.39;64.56
62946;BME280;52164;52.212;-1.010;2023-05-14T09:25:04;101176.16;;;15.42;63.97
62946;BME280;52164;52.212;-1.010;2023-05-14T09:27:30;101169.77;;;15.49;63.93
62946;BME280;52164;52.212;-1.010;2023-05-14T09:30:02;101167.70;;;15.60;63.69
62946;BME280;52164;52.212;-1.010;2023-05-14T09:32:33;101166.75;;;15.64;63.69
62946;BME280;52164;52.212;-1.010;2023-05-14T09:34:59;101164.73;;;15.67;63.85
62946;BME280;52164;52.212;-1.010;2023-05-14T09:37:35;101159.09;;;15.74;63.65
62946;BME280;52164;52.212;-1.010;2023-05-14T09:40:04;101152.76;;;15.80;63.69
62946;BME280;52164;52.212;-1.010;2023-05-14T09:42:30;101146.58;;;15.85;63.59
62946;BME280;52164;52.212;-1.010;2023-05-14T09:44:55;101148.45;;;15.93;64.00
62946;BME280;52164;52.212;-1.010;2023-05-14T09:47:21;101148.44;;;15.97;63.56
62946;BME280;52164;52.212;-1.010;2023-05-14T09:49:47;101146.09;;;15.96;63.65
62946;BME280;52164;52.212;-1.010;2023-05-14T09:52:17;101143.48;;;16.04;63.93
62946;BME280;52164;52.212;-1.010;2023-05-14T09:54:42;101140.12;;;16.13;63.82
62946;BME280;52164;52.212;-1.010;2023-05-14T09:57:08;101137.65;;;16.23;64.06
62946;BME280;52164;52.212;-1.010;2023-05-14T09:59:34;101134.42;;;16.34;63.93
62946;BME280;52164;52.212;-1.010;2023-05-14T10:01:59;101129.34;;;16.39;63.57
62946;BME280;52164;52.212;-1.010;2023-05-14T10:04:24;101131.77;;;16.45;63.69
62946;BME280;52164;52.212;-1.010;2023-05-14T10:06:50;101131.83;;;16.52;63.59
62946;BME280;52164;52.212;-1.010;2023-05-14T10:09:18;101129.02;;;16.59;63.43
62946;BME280;52164;52.212;-1.010;2023-05-14T10:11:49;101129.34;;;16.63;63.28
62946;BME280;52164;52.212;-1.010;2023-05-14T10:14:19;101129.86;;;16.64;63.34
62946;BME280;52164;52.212;-1.010;2023-05-14T10:16:48;101129.63;;;16.67;63.42
62946;BME280;52164;52.212;-1.010;2023-05-14T10:19:15;101128.06;;;16.75;63.49
62946;BME280;52164;52.212;-1.010;2023-05-14T10:21:43;101132.64;;;16.82;63.01
62946;BME280;52164;52.212;-1.010;2023-05-14T10:24:09;101126.09;;;16.87;62.87
62946;BME280;52164;52.212;-1.010;2023-05-14T10:26:35;101123.87;;;16.92;62.42
62946;BME280;52164;52.212;-1.010;2023-05-14T10:29:03;101122.48;;;16.99;62.80
62946;BME280;52164;52.212;-1.010;2023-05-14T10:32:34;101117.23;;;17.10;63.02
62946;BME280;52164;52.212;-1.010;2023-05-14T10:34:47;101117.05;;;17.21;62.59
62946;BME280;52164;52.212;-1.010;2023-05-14T10:37:03;101109.50;;;17.30;62.26
62946;BME280;52164;52.212;-1.010;2023-05-14T10:39:38;101111.15;;;17.38;61.99
62946;BME280;52164;52.212;-1.010;2023-05-14T10:42:04;101109.76;;;17.45;62.03
62946;BME280;52164;52.212;-1.010;2023-05-14T10:44:29;101104.35;;;17.54;62.20
62946;BME280;52164;52.212;-1.010;2023-05-14T10:46:57;101099.41;;;17.66;62.03
62946;BME280;52164;52.212;-1.010;2023-05-14T10:49:23;101101.29;;;17.81;62.10
62946;BME280;52164;52.212;-1.010;2023-05-14T10:51:52;101096.83;;;17.97;61.61
62946;BME280;52164;52.212;-1.010;2023-05-14T10:54:18;101097.30;;;18.09;61.00
62946;BME280;52164;52.212;-1.010;2023-05-14T10:56:44;101097.75;;;18.21;60.83
62946;BME280;52164;52.212;-1.010;2023-05-14T10:59:10;101094.77;;;18.26;60.75
62946;BME280;52164;52.212;-1.010;2023-05-14T11:01:36;101095.64;;;18.35;60.92
62946;BME280;52164;52.212;-1.010;2023-05-14T11:04:04;101097.74;;;18.38;60.33
62946;BME280;52164;52.212;-1.010;2023-05-14T11:06:30;101095.85;;;18.49;60.53
62946;BME280;52164;52.212;-1.010;2023-05-14T11:08:57;101092.08;;;18.56;60.17
62946;BME280;52164;52.212;-1.010;2023-05-14T11:11:25;101092.55;;;18.74;60.54
62946;BME280;52164;52.212;-1.010;2023-05-14T11:13:52;101090.35;;;18.98;60.53
62946;BME280;52164;52.212;-1.010;2023-05-14T11:16:18;101086.27;;;19.23;60.00
62946;BME280;52164;52.212;-1.010;2023-05-14T11:18:51;101078.60;;;19.45;59.79
62946;BME280;52164;52.212;-1.010;2023-05-14T11:21:17;101074.15;;;19.55;59.42
62946;BME280;52164;52.212;-1.010;2023-05-14T11:23:45;101069.48;;;19.74;59.23
62946;BME280;52164;52.212;-1.010;2023-05-14T11:26:10;101071.34;;;19.91;58.83
62946;BME280;52164;52.212;-1.010;2023-05-14T11:28:36;101065.36;;;20.09;58.28
62946;BME280;52164;52.212;-1.010;2023-05-14T11:31:03;101058.52;;;20.25;57.83
62946;BME280;52164;52.212;-1.010;2023-05-14T11:33:29;101063.13;;;20.34;57.78
62946;BME280;52164;52.212;-1.010;2023-05-14T11:35:55;101063.59;;;20.54;57.56
62946;BME280;52164;52.212;-1.010;2023-05-14T11:38:20;101058.34;;;20.77;56.98
62946;BME280;52164;52.212;-1.010;2023-05-14T11:41:01;101050.77;;;21.02;56.67
62946;BME280;52164;52.212;-1.010;2023-05-14T11:43:30;101040.88;;;21.30;55.87
62946;BME280;52164;52.212;-1.010;2023-05-14T11:45:55;101035.45;;;21.49;55.79
62946;BME280;52164;52.212;-1.010;2023-05-14T11:48:21;101026.68;;;21.71;55.47
62946;BME280;52164;52.212;-1.010;2023-05-14T11:50:47;101021.76;;;21.95;54.94
62946;BME280;52164;52.212;-1.010;2023-05-14T11:53:17;101013.92;;;22.14;54.76
62946;BME280;52164;52.212;-1.010;2023-05-14T11:55:44;101011.23;;;22.36;54.68
62946;BME280;52164;52.212;-1.010;2023-05-14T11:58:09;101012.17;;;22.53;53.12
62946;BME280;52164;52.212;-1.010;2023-05-14T12:00:36;101006.13;;;22.58;52.14
62946;BME280;52164;52.212;-1.010;2023-05-14T12:03:01;101004.59;;;22.64;52.20
62946;BME280;52164;52.212;-1.010;2023-05-14T12:05:28;101007.70;;;22.73;52.42
62946;BME280;52164;52.212;-1.010;2023-05-14T12:07:53;100996.35;;;22.83;51.77
62946;BME280;52164;52.212;-1.010;2023-05-14T12:10:21;100996.05;;;22.98;51.66
62946;BME280;52164;52.212;-1.010;2023-05-14T12:12:46;100995.23;;;23.21;51.22
62946;BME280;52164;52.212;-1.010;2023-05-14T12:15:14;100992.34;;;23.33;50.52
62946;BME280;52164;52.212;-1.010;2023-05-14T12:17:41;100998.96;;;23.43;50.06
62946;BME280;52164;52.212;-1.010;2023-05-14T12:20:07;100998.52;;;23.50;49.08
62946;BME280;52164;52.212;-1.010;2023-05-14T12:22:34;100992.84;;;23.46;49.44
62946;BME280;52164;52.212;-1.010;2023-05-14T12:24:59;100993.75;;;23.50;49.70
62946;BME280;52164;52.212;-1.010;2023-05-14T12:27:26;100990.46;;;23.47;49.45
62946;BME280;52164;52.212;-1.010;2023-05-14T12:29:59;100990.59;;;23.35;49.19
62946;BME280;52164;52.212;-1.010;2023-05-14T12:32:27;100987.87;;;23.11;49.53
62946;BME280;52164;52.212;-1.010;2023-05-14T12:34:52;100984.64;;;22.84;49.70
62946;BME280;52164;52.212;-1.010;2023-05-14T12:37:18;100984.59;;;22.60;50.18
62946;BME280;52164;52.212;-1.010;2023-05-14T12:39:44;100987.69;;;22.34;50.15